sensor_id;sensor_type;location;lat;lon;timestamp;P1;durP1;ratioP1;P2;durP2;ratioP2
58808;SDS011;44579;51.672;7.834;2022-10-16T00:01:29;8.65;;;2.70;;
58808;SDS011;44579;51.672;7.834;2022-10-16T00:03:57;4.45;;;2.15;;
58808;SDS011;44579;51.672;7.834;2022-10-16T00:06:26;3.85;;;2.00;;
58808;SDS011;44579;51.672;7.834;2022-10-16T00:08:54;4.50;;;2.08;;
58808;SDS011;44579;51.672;7.834;2022-10-16T00:13:50;5.82;;;2.50;;
58808;SDS011;44579;51.672;7.834;2022-10-16T00:16:20;4.47;;;2.22;;
58808;SDS011;44579;51.672;7.834;2022-10-16T00:18:47;3.53;;;1.80;;
58808;SDS011;44579;51.672;7.834;2022-10-16T00:21:16;2.90;;;2.08;;
58808;SDS011;44579;51.672;7.834;2022-10-16T00:23:58;4.65;;;2.13;;
58808;SDS011;44579;51.672;7.834;2022-10-16T00:26:28;5.18;;;1.95;;
58808;SDS011;44579;51.672;7.834;2022-10-16T00:28:58;6.15;;;2.05;;
58808;SDS011;44579;51.672;7.834;2022-10-16T00:31:25;5.97;;;2.05;;
58808;SDS011;44579;51.672;7.834;2022-10-16T00:33:52;6.68;;;1.70;;
58808;SDS011;44579;51.672;7.834;2022-10-16T00:36:21;3.28;;;1.73;;
58808;SDS011;44579;51.672;7.834;2022-10-16T00:38:50;3.63;;;1.60;;
58808;SDS011;44579;51.672;7.834;2022-10-16T00:41:23;5.90;;;1.70;;
58808;SDS011;44579;51.672;7.834;2022-10-16T00:46:20;2.70;;;1.83;;
58808;SDS011;44579;51.672;7.834;2022-10-16T00:48:57;3.63;;;1.85;;
58808;SDS011;44579;51.672;7.834;2022-10-16T00:51:46;2.95;;;1.60;;
58808;SDS011;44579;51.672;7.834;2022-10-16T00:54:18;6.35;;;2.00;;
58808;SDS011;44579;51.672;7.834;2022-10-16T00:56:48;6.90;;;2.40;;
58808;SDS011;44579;51.672;7.834;2022-10-16T00:59:18;2.60;;;1.50;;
58808;SDS011;44579;51.672;7.834;2022-10-16T01:01:48;7.40;;;1.90;;
58808;SDS011;44579;51.672;7.834;2022-10-16T01:04:15;3.20;;;1.52;;
58808;SDS011;44579;51.672;7.834;2022-10-16T01:06:51;3.03;;;1.90;;
58808;SDS011;44579;51.672;7.834;2022-10-16T01:09:35;4.63;;;1.83;;
58808;SDS011;44579;51.672;7.834;2022-10-16T01:15:01;2.65;;;1.85;;
58808;SDS011;44579;51.672;7.834;2022-10-16T01:17:41;10.88;;;2.03;;
58808;SDS011;44579;51.672;7.834;2022-10-16T01:20:20;4.35;;;1.77;;
58808;SDS011;44579;51.672;7.834;2022-10-16T01:28:36;2.80;;;1.90;;
58808;SDS011;44579;51.672;7.834;2022-10-16T01:31:10;4.05;;;2.00;;
58808;SDS011;44579;51.672;7.834;2022-10-16T01:33:53;8.38;;;2.20;;
58808;SDS011;44579;51.672;7.834;2022-10-16T01:36:31;2.65;;;1.63;;
58808;SDS011;44579;51.672;7.834;2022-10-16T01:39:26;3.00;;;1.95;;
58808;SDS011;44579;51.672;7.834;2022-10-16T01:42:00;3.50;;;1.70;;
58808;SDS011;44579;51.672;7.834;2022-10-16T01:44:43;3.22;;;1.70;;
58808;SDS011;44579;51.672;7.834;2022-10-16T01:47:12;2.53;;;1.58;;
58808;SDS011;44579;51.672;7.834;2022-10-16T01:49:40;3.15;;;1.52;;
58808;SDS011;44579;51.672;7.834;2022-10-16T01:52:10;3.22;;;1.85;;
58808;SDS011;44579;51.672;7.834;2022-10-16T01:54:42;4.20;;;1.27;;
58808;SDS011;44579;51.672;7.834;2022-10-16T01:57:12;4.55;;;1.80;;
58808;SDS011;44579;51.672;7.834;2022-10-16T01:59:42;19.98;;;2.10;;
58808;SDS011;44579;51.672;7.834;2022-10-16T02:02:11;3.72;;;2.30;;
58808;SDS011;44579;51.672;7.834;2022-10-16T02:05:15;7.32;;;1.92;;
58808;SDS011;44579;51.672;7.834;2022-10-16T02:07:42;3.38;;;1.55;;
58808;SDS011;44579;51.672;7.834;2022-10-16T02:10:09;3.33;;;1.83;;
58808;SDS011;44579;51.672;7.834;2022-10-16T02:15:06;2.83;;;1.20;;
58808;SDS011;44579;51.672;7.834;2022-10-16T02:17:33;5.18;;;1.58;;
58808;SDS011;44579;51.672;7.834;2022-10-16T02:20:00;5.55;;;1.63;;
58808;SDS011;44579;51.672;7.834;2022-10-16T02:27:57;1.80;;;1.50;;
58808;SDS011;44579;51.672;7.834;2022-10-16T02:30:33;2.88;;;1.52;;
58808;SDS011;44579;51.672;7.834;2022-10-16T02:33:07;2.20;;;1.00;;
58808;SDS011;44579;51.672;7.834;2022-10-16T02:35:39;3.42;;;1.75;;
58808;SDS011;44579;51.672;7.834;2022-10-16T02:38:08;4.88;;;1.38;;
58808;SDS011;44579;51.672;7.834;2022-10-16T02:40:41;2.30;;;1.58;;
58808;SDS011;44579;51.672;7.834;2022-10-16T02:43:09;2.78;;;1.30;;
58808;SDS011;44579;51.672;7.834;2022-10-16T02:45:36;1.95;;;1.42;;
58808;SDS011;44579;51.672;7.834;2022-10-16T02:50:32;2.40;;;1.52;;
58808;SDS011;44579;51.672;7.834;2022-10-16T02:53:00;5.50;;;1.40;;
58808;SDS011;44579;51.672;7.834;2022-10-16T02:55:27;1.80;;;1.13;;
58808;SDS011;44579;51.672;7.834;2022-10-16T02:57:54;2.20;;;1.25;;
58808;SDS011;44579;51.672;7.834;2022-10-16T03:00:22;10.50;;;1.67;;
58808;SDS011;44579;51.672;7.834;2022-10-16T03:02:49;5.05;;;1.85;;
58808;SDS011;44579;51.672;7.834;2022-10-16T03:05:16;2.78;;;1.67;;
58808;SDS011;44579;51.672;7.834;2022-10-16T03:07:44;8.05;;;1.30;;
58808;SDS011;44579;51.672;7.834;2022-10-16T03:10:11;3.60;;;1.70;;
58808;SDS011;44579;51.672;7.834;2022-10-16T03:12:38;2.72;;;1.73;;
58808;SDS011;44579;51.672;7.834;2022-10-16T03:15:06;2.13;;;1.20;;
58808;SDS011;44579;51.672;7.834;2022-10-16T03:17:33;1.90;;;1.30;;
58808;SDS011;44579;51.672;7.834;2022-10-16T03:20:00;2.92;;;1.25;;
58808;SDS011;44579;51.672;7.834;2022-10-16T03:22:28;1.60;;;1.20;;
58808;SDS011;44579;51.672;7.834;2022-10-16T03:24:55;1.67;;;1.25;;
58808;SDS011;44579;51.672;7.834;2022-10-16T03:27:22;3.25;;;0.93;;
58808;SDS011;44579;51.672;7.834;2022-10-16T03:29:51;2.95;;;1.25;;
58808;SDS011;44579;51.672;7.834;2022-10-16T03:32:18;3.95;;;1.42;;
58808;SDS011;44579;51.672;7.834;2022-10-16T03:34:46;1.52;;;1.15;;
58808;SDS011;44579;51.672;7.834;2022-10-16T03:37:13;1.02;;;0.85;;
58808;SDS011;44579;51.672;7.834;2022-10-16T03:39:40;2.15;;;1.40;;
58808;SDS011;44579;51.672;7.834;2022-10-16T03:42:07;1.83;;;1.23;;
58808;SDS011;44579;51.672;7.834;2022-10-16T03:44:34;1.35;;;1.10;;
58808;SDS011;44579;51.672;7.834;2022-10-16T03:47:01;9.05;;;1.50;;
58808;SDS011;44579;51.672;7.834;2022-10-16T03:49:28;1.80;;;1.00;;
58808;SDS011;44579;51.672;7.834;2022-10-16T03:51:55;5.50;;;1.70;;
58808;SDS011;44579;51.672;7.834;2022-10-16T03:54:22;9.27;;;1.20;;
58808;SDS011;44579;51.672;7.834;2022-10-16T03:56:49;1.90;;;1.13;;
58808;SDS011;44579;51.672;7.834;2022-10-16T04:01:46;1.85;;;1.00;;
58808;SDS011;44579;51.672;7.834;2022-10-16T04:04:14;1.08;;;0.98;;
58808;SDS011;44579;51.672;7.834;2022-10-16T04:06:40;1.20;;;1.10;;
58808;SDS011;44579;51.672;7.834;2022-10-16T04:09:07;3.65;;;1.20;;
58808;SDS011;44579;51.672;7.834;2022-10-16T04:11:34;7.70;;;1.10;;
58808;SDS011;44579;51.672;7.834;2022-10-16T04:14:01;2.03;;;1.17;;
58808;SDS011;44579;51.672;7.834;2022-10-16T04:16:29;2.85;;;1.35;;
58808;SDS011;44579;51.672;7.834;2022-10-16T04:18:56;2.55;;;1.10;;
58808;SDS011;44579;51.672;7.834;2022-10-16T04:21:22;2.10;;;1.08;;
58808;SDS011;44579;51.672;7.834;2022-10-16T04:23:49;2.30;;;1.33;;
58808;SDS011;44579;51.672;7.834;2022-10-16T04:26:16;1.30;;;0.90;;
58808;SDS011;44579;51.672;7.834;2022-10-16T04:28:43;4.45;;;1.88;;
58808;SDS011;44579;51.672;7.834;2022-10-16T04:31:10;1.27;;;0.90;;
58808;SDS011;44579;51.672;7.834;2022-10-16T04:33:37;3.72;;;1.05;;
58808;SDS011;44579;51.672;7.834;2022-10-16T04:36:04;1.70;;;1.05;;
58808;SDS011;44579;51.672;7.834;2022-10-16T04:38:31;1.65;;;0.90;;
58808;SDS011;44579;51.672;7.834;2022-10-16T04:40:58;1.95;;;1.17;;
58808;SDS011;44579;51.672;7.834;2022-10-16T04:43:25;9.15;;;1.17;;
58808;SDS011;44579;51.672;7.834;2022-10-16T04:45:57;1.35;;;1.10;;
58808;SDS011;44579;51.672;7.834;2022-10-16T04:48:24;3.17;;;1.02;;
58808;SDS011;44579;51.672;7.834;2022-10-16T04:50:52;1.98;;;1.10;;
58808;SDS011;44579;51.672;7.834;2022-10-16T04:53:20;0.90;;;0.73;;
58808;SDS011;44579;51.672;7.834;2022-10-16T04:55:47;2.05;;;0.93;;
58808;SDS011;44579;51.672;7.834;2022-10-16T04:58:17;0.80;;;0.73;;
58808;SDS011;44579;51.672;7.834;2022-10-16T05:00:44;1.50;;;1.05;;
58808;SDS011;44579;51.672;7.834;2022-10-16T05:03:13;2.22;;;0.98;;
58808;SDS011;44579;51.672;7.834;2022-10-16T05:05:43;4.72;;;1.33;;
58808;SDS011;44579;51.672;7.834;2022-10-16T05:08:12;1.92;;;1.05;;
58808;SDS011;44579;51.672;7.834;2022-10-16T05:10:41;1.83;;;0.95;;
58808;SDS011;44579;51.672;7.834;2022-10-16T05:13:09;1.10;;;1.00;;
58808;SDS011;44579;51.672;7.834;2022-10-16T05:15:36;3.03;;;1.15;;
58808;SDS011;44579;51.672;7.834;2022-10-16T05:18:04;1.10;;;0.90;;
58808;SDS011;44579;51.672;7.834;2022-10-16T05:20:31;1.52;;;1.10;;
58808;SDS011;44579;51.672;7.834;2022-10-16T05:22:57;1.05;;;0.90;;
58808;SDS011;44579;51.672;7.834;2022-10-16T05:25:27;1.17;;;0.93;;
58808;SDS011;44579;51.672;7.834;2022-10-16T05:27:54;2.20;;;1.20;;
58808;SDS011;44579;51.672;7.834;2022-10-16T05:30:21;1.23;;;0.95;;
58808;SDS011;44579;51.672;7.834;2022-10-16T05:32:48;5.80;;;1.35;;
58808;SDS011;44579;51.672;7.834;2022-10-16T05:35:17;2.03;;;1.27;;
58808;SDS011;44579;51.672;7.834;2022-10-16T05:37:45;2.33;;;1.15;;
58808;SDS011;44579;51.672;7.834;2022-10-16T05:40:13;1.13;;;0.95;;
58808;SDS011;44579;51.672;7.834;2022-10-16T05:42:40;1.65;;;1.08;;
58808;SDS011;44579;51.672;7.834;2022-10-16T05:45:08;2.83;;;1.00;;
58808;SDS011;44579;51.672;7.834;2022-10-16T05:47:37;1.75;;;1.10;;
58808;SDS011;44579;51.672;7.834;2022-10-16T05:50:04;1.38;;;1.10;;
58808;SDS011;44579;51.672;7.834;2022-10-16T05:52:31;1.27;;;0.80;;
58808;SDS011;44579;51.672;7.834;2022-10-16T05:54:58;1.08;;;0.98;;
58808;SDS011;44579;51.672;7.834;2022-10-16T05:57:25;1.80;;;0.80;;
58808;SDS011;44579;51.672;7.834;2022-10-16T05:59:52;1.98;;;0.98;;
58808;SDS011;44579;51.672;7.834;2022-10-16T06:02:19;1.95;;;1.27;;
58808;SDS011;44579;51.672;7.834;2022-10-16T06:04:47;1.05;;;0.90;;
58808;SDS011;44579;51.672;7.834;2022-10-16T06:07:14;1.63;;;0.98;;
58808;SDS011;44579;51.672;7.834;2022-10-16T06:09:40;1.40;;;1.00;;
58808;SDS011;44579;51.672;7.834;2022-10-16T06:12:08;1.45;;;0.80;;
58808;SDS011;44579;51.672;7.834;2022-10-16T06:14:35;1.25;;;1.02;;
58808;SDS011;44579;51.672;7.834;2022-10-16T06:17:02;1.20;;;1.10;;
58808;SDS011;44579;51.672;7.834;2022-10-16T06:19:28;4.97;;;1.13;;
58808;SDS011;44579;51.672;7.834;2022-10-16T06:21:56;1.05;;;0.70;;
58808;SDS011;44579;51.672;7.834;2022-10-16T06:24:24;1.38;;;0.93;;
58808;SDS011;44579;51.672;7.834;2022-10-16T06:26:51;1.88;;;0.70;;
58808;SDS011;44579;51.672;7.834;2022-10-16T06:29:18;1.40;;;1.20;;
58808;SDS011;44579;51.672;7.834;2022-10-16T06:31:45;2.50;;;1.00;;
58808;SDS011;44579;51.672;7.834;2022-10-16T06:34:12;0.80;;;0.70;;
58808;SDS011;44579;51.672;7.834;2022-10-16T06:36:39;1.75;;;0.90;;
58808;SDS011;44579;51.672;7.834;2022-10-16T06:39:07;2.08;;;0.98;;
58808;SDS011;44579;51.672;7.834;2022-10-16T06:41:34;5.47;;;1.00;;
58808;SDS011;44579;51.672;7.834;2022-10-16T06:44:23;5.30;;;0.95;;
58808;SDS011;44579;51.672;7.834;2022-10-16T06:46:50;0.70;;;0.70;;
58808;SDS011;44579;51.672;7.834;2022-10-16T06:49:17;1.13;;;0.97;;
58808;SDS011;44579;51.672;7.834;2022-10-16T06:51:48;1.08;;;0.75;;
58808;SDS011;44579;51.672;7.834;2022-10-16T06:54:15;1.52;;;0.98;;
58808;SDS011;44579;51.672;7.834;2022-10-16T06:56:46;1.45;;;1.05;;
58808;SDS011;44579;51.672;7.834;2022-10-16T06:59:13;1.58;;;1.00;;
58808;SDS011;44579;51.672;7.834;2022-10-16T07:01:40;4.80;;;1.07;;
58808;SDS011;44579;51.672;7.834;2022-10-16T07:04:07;1.42;;;0.80;;
58808;SDS011;44579;51.672;7.834;2022-10-16T07:06:34;2.08;;;0.98;;
58808;SDS011;44579;51.672;7.834;2022-10-16T07:09:02;1.63;;;0.98;;
58808;SDS011;44579;51.672;7.834;2022-10-16T07:11:31;4.47;;;0.80;;
58808;SDS011;44579;51.672;7.834;2022-10-16T07:13:58;1.40;;;1.10;;
58808;SDS011;44579;51.672;7.834;2022-10-16T07:16:27;1.27;;;0.80;;
58808;SDS011;44579;51.672;7.834;2022-10-16T07:18:56;2.95;;;1.17;;
58808;SDS011;44579;51.672;7.834;2022-10-16T07:21:27;1.17;;;0.80;;
58808;SDS011;44579;51.672;7.834;2022-10-16T07:23:57;2.65;;;1.50;;
58808;SDS011;44579;51.672;7.834;2022-10-16T07:26:26;1.88;;;1.10;;
58808;SDS011;44579;51.672;7.834;2022-10-16T07:28:53;11.82;;;1.20;;
58808;SDS011;44579;51.672;7.834;2022-10-16T07:33:49;0.88;;;0.80;;
58808;SDS011;44579;51.672;7.834;2022-10-16T07:36:18;5.95;;;0.70;;
58808;SDS011;44579;51.672;7.834;2022-10-16T07:38:46;0.90;;;0.70;;
58808;SDS011;44579;51.672;7.834;2022-10-16T07:41:15;1.83;;;1.20;;
58808;SDS011;44579;51.672;7.834;2022-10-16T07:43:47;1.10;;;0.70;;
58808;SDS011;44579;51.672;7.834;2022-10-16T07:46:15;1.13;;;1.02;;
58808;SDS011;44579;51.672;7.834;2022-10-16T07:48:43;1.35;;;1.02;;
58808;SDS011;44579;51.672;7.834;2022-10-16T07:51:13;1.42;;;1.00;;
58808;SDS011;44579;51.672;7.834;2022-10-16T07:53:42;1.08;;;0.90;;
58808;SDS011;44579;51.672;7.834;2022-10-16T07:56:09;2.28;;;1.08;;
58808;SDS011;44579;51.672;7.834;2022-10-16T07:58:37;2.35;;;1.23;;
58808;SDS011;44579;51.672;7.834;2022-10-16T08:01:05;2.88;;;1.30;;
58808;SDS011;44579;51.672;7.834;2022-10-16T08:03:35;1.33;;;1.00;;
58808;SDS011;44579;51.672;7.834;2022-10-16T08:06:02;2.05;;;1.05;;
58808;SDS011;44579;51.672;7.834;2022-10-16T08:08:30;3.05;;;0.90;;
58808;SDS011;44579;51.672;7.834;2022-10-16T08:10:58;1.67;;;1.08;;
58808;SDS011;44579;51.672;7.834;2022-10-16T08:13:25;1.85;;;1.20;;
58808;SDS011;44579;51.672;7.834;2022-10-16T08:15:53;3.30;;;1.40;;
58808;SDS011;44579;51.672;7.834;2022-10-16T08:18:21;7.40;;;1.20;;
58808;SDS011;44579;51.672;7.834;2022-10-16T08:20:57;1.38;;;0.90;;
58808;SDS011;44579;51.672;7.834;2022-10-16T08:23:27;1.40;;;0.88;;
58808;SDS011;44579;51.672;7.834;2022-10-16T08:25:55;2.55;;;0.80;;
58808;SDS011;44579;51.672;7.834;2022-10-16T08:28:23;2.80;;;1.00;;
58808;SDS011;44579;51.672;7.834;2022-10-16T08:30:50;1.33;;;1.00;;
58808;SDS011;44579;51.672;7.834;2022-10-16T08:33:17;1.75;;;1.20;;
58808;SDS011;44579;51.672;7.834;2022-10-16T08:35:51;1.65;;;1.10;;
58808;SDS011;44579;51.672;7.834;2022-10-16T08:38:20;3.38;;;1.10;;
58808;SDS011;44579;51.672;7.834;2022-10-16T08:43:28;1.00;;;0.88;;
58808;SDS011;44579;51.672;7.834;2022-10-16T08:46:14;1.95;;;1.25;;
58808;SDS011;44579;51.672;7.834;2022-10-16T08:48:58;0.68;;;0.60;;
58808;SDS011;44579;51.672;7.834;2022-10-16T08:51:28;2.08;;;1.23;;
58808;SDS011;44579;51.672;7.834;2022-10-16T08:54:04;1.77;;;1.00;;
58808;SDS011;44579;51.672;7.834;2022-10-16T08:56:54;2.05;;;1.27;;
58808;SDS011;44579;51.672;7.834;2022-10-16T08:59:27;1.42;;;1.23;;
58808;SDS011;44579;51.672;7.834;2022-10-16T09:01:54;1.20;;;0.45;;
58808;SDS011;44579;51.672;7.834;2022-10-16T09:04:43;5.50;;;0.90;;
58808;SDS011;44579;51.672;7.834;2022-10-16T09:07:31;1.80;;;0.75;;
58808;SDS011;44579;51.672;7.834;2022-10-16T09:10:34;1.30;;;1.00;;
58808;SDS011;44579;51.672;7.834;2022-10-16T09:15:40;0.43;;;0.40;;
58808;SDS011;44579;51.672;7.834;2022-10-16T09:21:09;3.85;;;0.50;;
58808;SDS011;44579;51.672;7.834;2022-10-16T09:23:44;1.30;;;0.45;;
58808;SDS011;44579;51.672;7.834;2022-10-16T09:26:13;1.05;;;0.80;;
58808;SDS011;44579;51.672;7.834;2022-10-16T09:28:41;3.03;;;0.70;;
58808;SDS011;44579;51.672;7.834;2022-10-16T09:31:16;1.10;;;0.73;;
58808;SDS011;44579;51.672;7.834;2022-10-16T09:33:51;2.30;;;0.45;;
58808;SDS011;44579;51.672;7.834;2022-10-16T09:36:25;3.75;;;0.60;;
58808;SDS011;44579;51.672;7.834;2022-10-16T09:39:04;1.30;;;0.77;;
58808;SDS011;44579;51.672;7.834;2022-10-16T09:41:33;1.98;;;0.95;;
58808;SDS011;44579;51.672;7.834;2022-10-16T09:44:03;0.95;;;0.70;;
58808;SDS011;44579;51.672;7.834;2022-10-16T09:46:32;5.22;;;0.88;;
58808;SDS011;44579;51.672;7.834;2022-10-16T09:49:05;0.93;;;0.82;;
58808;SDS011;44579;51.672;7.834;2022-10-16T09:51:50;9.38;;;0.82;;
58808;SDS011;44579;51.672;7.834;2022-10-16T09:54:29;0.90;;;0.50;;
58808;SDS011;44579;51.672;7.834;2022-10-16T09:57:06;3.92;;;0.40;;
58808;SDS011;44579;51.672;7.834;2022-10-16T09:59:34;4.47;;;0.50;;
58808;SDS011;44579;51.672;7.834;2022-10-16T10:02:11;0.40;;;0.40;;
58808;SDS011;44579;51.672;7.834;2022-10-16T10:04:44;1.67;;;0.57;;
58808;SDS011;44579;51.672;7.834;2022-10-16T10:07:16;3.40;;;0.40;;
58808;SDS011;44579;51.672;7.834;2022-10-16T10:09:47;1.98;;;0.82;;
58808;SDS011;44579;51.672;7.834;2022-10-16T10:12:27;2.03;;;0.77;;
58808;SDS011;44579;51.672;7.834;2022-10-16T10:15:03;1.83;;;0.70;;
58808;SDS011;44579;51.672;7.834;2022-10-16T10:17:44;1.48;;;0.70;;
58808;SDS011;44579;51.672;7.834;2022-10-16T10:22:54;1.63;;;0.47;;
58808;SDS011;44579;51.672;7.834;2022-10-16T10:25:25;1.80;;;0.77;;
58808;SDS011;44579;51.672;7.834;2022-10-16T10:30:46;1.05;;;0.60;;
58808;SDS011;44579;51.672;7.834;2022-10-16T10:33:44;7.57;;;0.90;;
58808;SDS011;44579;51.672;7.834;2022-10-16T10:39:08;2.97;;;0.82;;
58808;SDS011;44579;51.672;7.834;2022-10-16T10:47:15;1.25;;;0.60;;
58808;SDS011;44579;51.672;7.834;2022-10-16T10:52:56;1.00;;;0.50;;
58808;SDS011;44579;51.672;7.834;2022-10-16T10:58:43;1.85;;;0.50;;
58808;SDS011;44579;51.672;7.834;2022-10-16T11:01:22;4.82;;;1.05;;
58808;SDS011;44579;51.672;7.834;2022-10-16T11:04:16;5.03;;;0.90;;
58808;SDS011;44579;51.672;7.834;2022-10-16T11:07:17;5.80;;;0.70;;
58808;SDS011;44579;51.672;7.834;2022-10-16T11:09:48;2.70;;;0.65;;
58808;SDS011;44579;51.672;7.834;2022-10-16T11:12:35;0.75;;;0.35;;
58808;SDS011;44579;51.672;7.834;2022-10-16T11:15:11;4.55;;;0.55;;
58808;SDS011;44579;51.672;7.834;2022-10-16T11:17:57;1.13;;;0.70;;
58808;SDS011;44579;51.672;7.834;2022-10-16T11:20:32;0.40;;;0.30;;
58808;SDS011;44579;51.672;7.834;2022-10-16T11:25:51;0.85;;;0.47;;
58808;SDS011;44579;51.672;7.834;2022-10-16T11:28:27;0.43;;;0.38;;
58808;SDS011;44579;51.672;7.834;2022-10-16T11:31:20;5.65;;;0.93;;
58808;SDS011;44579;51.672;7.834;2022-10-16T11:34:01;3.47;;;0.90;;
58808;SDS011;44579;51.672;7.834;2022-10-16T11:39:29;6.53;;;0.75;;
58808;SDS011;44579;51.672;7.834;2022-10-16T11:42:02;2.05;;;0.40;;
58808;SDS011;44579;51.672;7.834;2022-10-16T11:47:31;1.70;;;0.50;;
58808;SDS011;44579;51.672;7.834;2022-10-16T11:53:23;1.55;;;0.68;;
58808;SDS011;44579;51.672;7.834;2022-10-16T11:56:17;1.00;;;0.40;;
58808;SDS011;44579;51.672;7.834;2022-10-16T11:58:50;3.63;;;0.65;;
58808;SDS011;44579;51.672;7.834;2022-10-16T12:01:53;0.77;;;0.40;;
58808;SDS011;44579;51.672;7.834;2022-10-16T12:04:25;1.00;;;0.47;;
58808;SDS011;44579;51.672;7.834;2022-10-16T12:07:04;3.42;;;0.50;;
58808;SDS011;44579;51.672;7.834;2022-10-16T12:09:36;2.58;;;0.45;;
58808;SDS011;44579;51.672;7.834;2022-10-16T12:12:22;2.25;;;0.60;;
58808;SDS011;44579;51.672;7.834;2022-10-16T12:15:00;4.93;;;0.60;;
58808;SDS011;44579;51.672;7.834;2022-10-16T12:18:20;1.67;;;0.60;;
58808;SDS011;44579;51.672;7.834;2022-10-16T12:20:57;2.55;;;0.60;;
58808;SDS011;44579;51.672;7.834;2022-10-16T12:23:27;5.25;;;0.55;;
58808;SDS011;44579;51.672;7.834;2022-10-16T12:25:55;0.43;;;0.32;;
58808;SDS011;44579;51.672;7.834;2022-10-16T12:28:27;5.80;;;0.68;;
58808;SDS011;44579;51.672;7.834;2022-10-16T12:31:00;3.35;;;0.65;;
58808;SDS011;44579;51.672;7.834;2022-10-16T12:33:30;0.85;;;0.40;;
58808;SDS011;44579;51.672;7.834;2022-10-16T12:36:00;0.90;;;0.45;;
58808;SDS011;44579;51.672;7.834;2022-10-16T12:38:52;1.63;;;0.65;;
58808;SDS011;44579;51.672;7.834;2022-10-16T12:41:26;2.70;;;0.85;;
58808;SDS011;44579;51.672;7.834;2022-10-16T12:43:58;2.05;;;0.43;;
58808;SDS011;44579;51.672;7.834;2022-10-16T12:49:20;1.35;;;0.50;;
58808;SDS011;44579;51.672;7.834;2022-10-16T12:51:54;1.75;;;0.77;;
58808;SDS011;44579;51.672;7.834;2022-10-16T12:54:27;1.23;;;0.50;;
58808;SDS011;44579;51.672;7.834;2022-10-16T13:08:38;0.70;;;0.40;;
58808;SDS011;44579;51.672;7.834;2022-10-16T13:14:20;1.15;;;0.75;;
58808;SDS011;44579;51.672;7.834;2022-10-16T13:17:07;3.13;;;0.70;;
58808;SDS011;44579;51.672;7.834;2022-10-16T13:22:21;1.80;;;0.55;;
58808;SDS011;44579;51.672;7.834;2022-10-16T13:30:23;0.95;;;0.60;;
58808;SDS011;44579;51.672;7.834;2022-10-16T13:33:13;1.80;;;0.50;;
58808;SDS011;44579;51.672;7.834;2022-10-16T13:35:50;0.68;;;0.32;;
58808;SDS011;44579;51.672;7.834;2022-10-16T13:38:21;2.40;;;0.70;;
58808;SDS011;44579;51.672;7.834;2022-10-16T13:44:00;0.77;;;0.50;;
58808;SDS011;44579;51.672;7.834;2022-10-16T13:46:27;1.98;;;0.65;;
58808;SDS011;44579;51.672;7.834;2022-10-16T13:48:59;1.17;;;0.47;;
58808;SDS011;44579;51.672;7.834;2022-10-16T13:51:29;0.93;;;0.50;;
58808;SDS011;44579;51.672;7.834;2022-10-16T13:53:57;1.92;;;0.57;;
58808;SDS011;44579;51.672;7.834;2022-10-16T13:56:28;1.67;;;0.40;;
58808;SDS011;44579;51.672;7.834;2022-10-16T13:59:20;6.13;;;0.75;;
58808;SDS011;44579;51.672;7.834;2022-10-16T14:01:53;0.60;;;0.30;;
58808;SDS011;44579;51.672;7.834;2022-10-16T14:04:22;0.65;;;0.30;;
58808;SDS011;44579;51.672;7.834;2022-10-16T14:06:51;1.35;;;0.60;;
58808;SDS011;44579;51.672;7.834;2022-10-16T14:09:29;1.33;;;0.30;;
58808;SDS011;44579;51.672;7.834;2022-10-16T14:11:58;1.27;;;0.50;;
58808;SDS011;44579;51.672;7.834;2022-10-16T14:14:33;1.42;;;0.40;;
58808;SDS011;44579;51.672;7.834;2022-10-16T14:17:12;4.47;;;0.40;;
58808;SDS011;44579;51.672;7.834;2022-10-16T14:19:48;0.30;;;0.30;;
58808;SDS011;44579;51.672;7.834;2022-10-16T14:24:57;2.65;;;0.60;;
58808;SDS011;44579;51.672;7.834;2022-10-16T14:27:34;2.55;;;0.70;;
58808;SDS011;44579;51.672;7.834;2022-10-16T14:30:13;2.20;;;0.40;;
58808;SDS011;44579;51.672;7.834;2022-10-16T14:32:59;1.23;;;0.40;;
58808;SDS011;44579;51.672;7.834;2022-10-16T14:35:36;0.70;;;0.38;;
58808;SDS011;44579;51.672;7.834;2022-10-16T14:38:05;0.90;;;0.30;;
58808;SDS011;44579;51.672;7.834;2022-10-16T14:40:46;1.85;;;0.30;;
58808;SDS011;44579;51.672;7.834;2022-10-16T14:43:17;4.38;;;0.55;;
58808;SDS011;44579;51.672;7.834;2022-10-16T14:45:53;0.52;;;0.35;;
58808;SDS011;44579;51.672;7.834;2022-10-16T14:48:22;0.60;;;0.30;;
58808;SDS011;44579;51.672;7.834;2022-10-16T14:50:50;1.10;;;0.40;;
58808;SDS011;44579;51.672;7.834;2022-10-16T14:58:13;0.95;;;0.30;;
58808;SDS011;44579;51.672;7.834;2022-10-16T15:00:46;1.70;;;0.40;;
58808;SDS011;44579;51.672;7.834;2022-10-16T15:03:14;4.60;;;0.50;;
58808;SDS011;44579;51.672;7.834;2022-10-16T15:05:44;1.95;;;0.40;;
58808;SDS011;44579;51.672;7.834;2022-10-16T15:08:11;1.98;;;0.30;;
58808;SDS011;44579;51.672;7.834;2022-10-16T15:10:40;0.50;;;0.45;;
58808;SDS011;44579;51.672;7.834;2022-10-16T15:13:10;0.82;;;0.43;;
58808;SDS011;44579;51.672;7.834;2022-10-16T15:15:43;0.93;;;0.40;;
58808;SDS011;44579;51.672;7.834;2022-10-16T15:18:11;1.30;;;0.70;;
58808;SDS011;44579;51.672;7.834;2022-10-16T15:20:41;3.10;;;1.30;;
58808;SDS011;44579;51.672;7.834;2022-10-16T15:23:15;1.90;;;1.10;;
58808;SDS011;44579;51.672;7.834;2022-10-16T15:25:51;5.20;;;1.35;;
58808;SDS011;44579;51.672;7.834;2022-10-16T15:28:20;3.70;;;0.80;;
58808;SDS011;44579;51.672;7.834;2022-10-16T15:30:49;1.98;;;0.77;;
58808;SDS011;44579;51.672;7.834;2022-10-16T15:33:19;3.88;;;0.70;;
58808;SDS011;44579;51.672;7.834;2022-10-16T15:35:49;1.95;;;0.80;;
58808;SDS011;44579;51.672;7.834;2022-10-16T15:38:18;2.35;;;0.70;;
58808;SDS011;44579;51.672;7.834;2022-10-16T15:40:49;2.92;;;0.47;;
58808;SDS011;44579;51.672;7.834;2022-10-16T15:43:17;2.08;;;0.45;;
58808;SDS011;44579;51.672;7.834;2022-10-16T15:46:06;1.45;;;0.60;;
58808;SDS011;44579;51.672;7.834;2022-10-16T15:48:38;4.75;;;0.70;;
58808;SDS011;44579;51.672;7.834;2022-10-16T15:51:06;0.30;;;0.30;;
58808;SDS011;44579;51.672;7.834;2022-10-16T15:53:34;0.60;;;0.40;;
58808;SDS011;44579;51.672;7.834;2022-10-16T15:56:02;0.70;;;0.45;;
58808;SDS011;44579;51.672;7.834;2022-10-16T15:58:32;1.90;;;0.60;;
58808;SDS011;44579;51.672;7.834;2022-10-16T16:01:00;2.28;;;0.63;;
58808;SDS011;44579;51.672;7.834;2022-10-16T16:03:28;0.95;;;0.50;;
58808;SDS011;44579;51.672;7.834;2022-10-16T16:05:56;1.20;;;0.50;;
58808;SDS011;44579;51.672;7.834;2022-10-16T16:08:24;1.50;;;0.70;;
58808;SDS011;44579;51.672;7.834;2022-10-16T16:10:58;1.83;;;0.75;;
58808;SDS011;44579;51.672;7.834;2022-10-16T16:13:30;4.97;;;0.75;;
58808;SDS011;44579;51.672;7.834;2022-10-16T16:15:57;1.13;;;0.50;;
58808;SDS011;44579;51.672;7.834;2022-10-16T16:18:25;2.55;;;0.70;;
58808;SDS011;44579;51.672;7.834;2022-10-16T16:20:52;2.92;;;1.17;;
58808;SDS011;44579;51.672;7.834;2022-10-16T16:23:31;9.52;;;1.38;;
58808;SDS011;44579;51.672;7.834;2022-10-16T16:26:03;4.38;;;1.08;;
58808;SDS011;44579;51.672;7.834;2022-10-16T16:28:30;2.67;;;1.00;;
58808;SDS011;44579;51.672;7.834;2022-10-16T16:30:57;4.50;;;1.27;;
58808;SDS011;44579;51.672;7.834;2022-10-16T16:33:26;4.95;;;1.65;;
58808;SDS011;44579;51.672;7.834;2022-10-16T16:35:57;4.22;;;1.55;;
58808;SDS011;44579;51.672;7.834;2022-10-16T16:38:25;7.13;;;1.35;;
58808;SDS011;44579;51.672;7.834;2022-10-16T16:40:53;1.90;;;1.10;;
58808;SDS011;44579;51.672;7.834;2022-10-16T16:43:22;1.48;;;1.00;;
58808;SDS011;44579;51.672;7.834;2022-10-16T16:45:53;2.30;;;0.95;;
58808;SDS011;44579;51.672;7.834;2022-10-16T16:50:47;3.13;;;1.20;;
58808;SDS011;44579;51.672;7.834;2022-10-16T16:53:15;1.83;;;1.20;;
58808;SDS011;44579;51.672;7.834;2022-10-16T16:55:42;1.08;;;0.68;;
58808;SDS011;44579;51.672;7.834;2022-10-16T16:58:08;3.95;;;0.90;;
58808;SDS011;44579;51.672;7.834;2022-10-16T17:00:35;2.70;;;1.45;;
58808;SDS011;44579;51.672;7.834;2022-10-16T17:03:02;7.70;;;1.70;;